createdAt,value
2017-12-15T00:00:55.756Z,3.60
2017-12-15T00:03:21.711Z,3.40
2017-12-15T00:05:48.424Z,3.50
2017-12-15T00:08:14.369Z,3.50
2017-12-15T00:10:40.340Z,3.50
2017-12-15T00:13:07.029Z,3.30
2017-12-15T00:15:32.996Z,3.30
2017-12-15T00:17:59.016Z,3.30
2017-12-15T00:20:24.956Z,3.20
2017-12-15T00:22:50.900Z,3.10
2017-12-15T00:25:16.896Z,3.10
2017-12-15T00:27:42.868Z,3.00
2017-12-15T00:30:08.854Z,3.00
2017-12-15T00:32:35.555Z,2.80
2017-12-15T00:35:01.551Z,2.80
2017-12-15T00:37:27.522Z,2.80
2017-12-15T00:39:53.452Z,2.70
2017-12-15T00:42:19.428Z,2.80
2017-12-15T00:44:45.352Z,2.80
2017-12-15T00:47:11.321Z,2.80
2017-12-15T00:49:38.020Z,2.80
2017-12-15T00:52:03.989Z,2.80
2017-12-15T00:54:29.945Z,2.80
2017-12-15T00:56:55.879Z,2.70
2017-12-15T00:59:22.577Z,2.60
2017-12-15T01:01:48.509Z,2.70
2017-12-15T01:04:14.529Z,2.60
2017-12-15T01:06:40.460Z,2.80
2017-12-15T01:09:06.446Z,2.90
2017-12-15T01:11:32.404Z,2.90
2017-12-15T01:13:59.176Z,2.80
2017-12-15T01:16:25.117Z,2.80
2017-12-15T01:18:51.065Z,2.70
2017-12-15T01:21:17.045Z,2.70
2017-12-15T01:23:43.010Z,2.70
2017-12-15T01:26:08.984Z,2.70
2017-12-15T01:28:34.925Z,2.70
2017-12-15T01:31:00.978Z,2.80
2017-12-15T01:33:26.908Z,2.80
2017-12-15T01:35:52.889Z,2.90
2017-12-15T01:38:18.853Z,2.90
2017-12-15T01:40:45.596Z,3.00
2017-12-15T01:43:11.572Z,3.00
2017-12-15T01:45:37.517Z,2.90
2017-12-15T01:48:03.492Z,2.80
2017-12-15T01:50:29.470Z,2.80
2017-12-15T01:52:55.478Z,2.70
2017-12-15T01:55:21.416Z,2.70
2017-12-15T01:57:47.392Z,2.70
2017-12-15T02:00:13.373Z,2.60
2017-12-15T02:02:39.317Z,2.70
2017-12-15T02:05:05.256Z,2.70
2017-12-15T02:07:31.240Z,2.60
2017-12-15T02:09:57.933Z,2.60
2017-12-15T02:12:23.869Z,2.60
2017-12-15T02:14:49.836Z,2.60
2017-12-15T02:17:15.852Z,2.60
2017-12-15T02:19:41.848Z,2.60
2017-12-15T02:22:08.557Z,2.60
2017-12-15T02:27:23.288Z,2.50
2017-12-15T02:29:49.264Z,2.40
2017-12-15T02:32:15.241Z,2.40
2017-12-15T02:34:41.180Z,2.40
2017-12-15T02:37:07.157Z,2.30
2017-12-15T02:39:33.914Z,2.30
2017-12-15T02:42:00.688Z,2.30
2017-12-15T02:44:26.635Z,2.30
2017-12-15T02:46:52.571Z,2.40
2017-12-15T02:49:18.560Z,2.40
2017-12-15T02:51:45.253Z,2.60
2017-12-15T02:54:11.215Z,2.50
2017-12-15T02:56:37.198Z,2.60
2017-12-15T02:59:03.880Z,2.60
2017-12-15T03:01:29.849Z,2.60
2017-12-15T03:03:55.840Z,2.60
2017-12-15T03:06:21.789Z,2.60
2017-12-15T03:08:47.764Z,2.60
2017-12-15T03:11:13.700Z,2.70
2017-12-15T03:13:39.680Z,2.80
2017-12-15T03:16:05.657Z,2.90
2017-12-15T03:18:31.648Z,2.90
2017-12-15T03:20:57.600Z,3.00
2017-12-15T03:23:23.596Z,2.90
2017-12-15T03:25:50.288Z,3.00
2017-12-15T03:28:16.289Z,3.00
2017-12-15T03:30:43.015Z,3.00
2017-12-15T03:33:08.960Z,3.00
2017-12-15T03:35:34.928Z,3.00
2017-12-15T03:38:00.910Z,3.00
2017-12-15T03:40:26.880Z,3.00
2017-12-15T03:42:53.587Z,3.10
2017-12-15T03:45:19.560Z,3.10
2017-12-15T03:47:45.559Z,3.20
2017-12-15T03:50:11.549Z,3.20
2017-12-15T03:52:38.239Z,3.20
2017-12-15T03:55:04.216Z,3.10
2017-12-15T03:57:30.184Z,3.10
2017-12-15T03:59:56.182Z,3.10
2017-12-15T04:02:22.141Z,3.10
2017-12-15T04:04:48.864Z,3.20
2017-12-15T04:07:14.841Z,3.20
2017-12-15T04:09:41.077Z,3.20
2017-12-15T04:12:07.812Z,3.10
2017-12-15T04:14:33.909Z,3.10
2017-12-15T04:16:59.907Z,3.10
2017-12-15T04:19:26.600Z,3.20
2017-12-15T04:21:52.540Z,3.10
2017-12-15T04:24:18.512Z,3.20
2017-12-15T04:26:44.481Z,3.30
2017-12-15T04:29:10.469Z,3.20
2017-12-15T04:31:36.421Z,3.30
2017-12-15T04:34:03.156Z,3.30
2017-12-15T04:36:29.129Z,3.30
2017-12-15T04:38:55.104Z,3.40
2017-12-15T04:41:21.130Z,3.40
2017-12-15T04:43:47.097Z,3.40
2017-12-15T04:46:13.036Z,3.50
2017-12-15T04:48:39.042Z,3.50
2017-12-15T04:51:04.988Z,3.50
2017-12-15T04:53:31.742Z,3.60
2017-12-15T04:55:57.693Z,3.60
2017-12-15T04:58:23.660Z,3.60
2017-12-15T05:00:50.388Z,3.70
2017-12-15T05:03:16.341Z,3.70
2017-12-15T05:05:43.083Z,3.80
2017-12-15T05:08:09.044Z,3.80
2017-12-15T05:10:35.761Z,3.80
2017-12-15T05:13:01.720Z,3.80
2017-12-15T05:15:28.443Z,3.90
2017-12-15T05:17:54.418Z,3.90
2017-12-15T05:20:21.112Z,4.00
2017-12-15T05:22:47.100Z,4.00
2017-12-15T05:25:13.785Z,4.10
2017-12-15T05:27:39.765Z,4.10
2017-12-15T05:30:05.748Z,4.10
2017-12-15T05:32:32.432Z,4.20
2017-12-15T05:34:58.404Z,4.20
2017-12-15T05:37:25.108Z,4.30
2017-12-15T05:39:51.083Z,4.30
2017-12-15T05:42:17.080Z,4.30
2017-12-15T05:44:43.762Z,4.30
2017-12-15T05:47:09.729Z,4.30
2017-12-15T05:49:36.478Z,4.30
2017-12-15T05:52:02.432Z,4.30
2017-12-15T05:54:28.383Z,4.40
2017-12-15T05:56:54.347Z,4.40
2017-12-15T05:59:20.329Z,4.40
2017-12-15T06:01:47.024Z,4.40
2017-12-15T06:04:12.975Z,4.40
2017-12-15T06:06:39.688Z,4.40
2017-12-15T06:09:05.673Z,4.40
2017-12-15T06:11:32.482Z,4.40
2017-12-15T06:13:58.432Z,4.30
2017-12-15T06:16:24.442Z,4.40
2017-12-15T06:18:51.144Z,4.50
2017-12-15T06:21:17.096Z,4.50
2017-12-15T06:23:43.090Z,4.50
2017-12-15T06:26:09.040Z,4.40
2017-12-15T06:28:34.980Z,4.40
2017-12-15T06:31:00.981Z,4.40
2017-12-15T06:33:26.921Z,4.40
2017-12-15T06:35:52.869Z,4.50
2017-12-15T06:38:18.863Z,4.40
2017-12-15T06:40:45.589Z,4.50
2017-12-15T06:43:11.560Z,4.50
2017-12-15T06:45:38.293Z,4.60
2017-12-15T06:48:04.262Z,4.60
2017-12-15T06:50:30.244Z,4.60
2017-12-15T06:52:56.225Z,4.60
2017-12-15T06:55:22.180Z,4.60
2017-12-15T06:57:48.156Z,4.70
2017-12-15T07:00:14.229Z,4.70
2017-12-15T07:02:40.953Z,4.70
2017-12-15T07:05:06.929Z,4.70
2017-12-15T07:07:32.903Z,4.70
2017-12-15T07:09:58.925Z,4.70
2017-12-15T07:12:25.708Z,4.70
2017-12-15T07:14:51.762Z,4.70
2017-12-15T07:17:17.678Z,4.70
2017-12-15T07:19:43.624Z,4.80
2017-12-15T07:22:09.609Z,4.70
2017-12-15T07:24:35.572Z,4.70
2017-12-15T07:27:01.587Z,4.70
2017-12-15T07:29:27.540Z,4.70
2017-12-15T07:31:53.526Z,4.80
2017-12-15T07:34:20.204Z,4.70
2017-12-15T07:36:46.194Z,4.70
2017-12-15T07:39:12.164Z,4.80
2017-12-15T07:41:38.096Z,4.80
2017-12-15T07:44:04.129Z,4.60
2017-12-15T07:46:30.098Z,4.80
2017-12-15T07:48:56.042Z,4.80
2017-12-15T07:51:22.122Z,4.80
2017-12-15T07:53:48.805Z,4.90
2017-12-15T07:56:14.762Z,4.90
2017-12-15T07:58:40.741Z,4.80
2017-12-15T08:01:06.676Z,4.90
2017-12-15T08:03:32.657Z,4.90
2017-12-15T08:05:58.640Z,4.80
2017-12-15T08:08:24.605Z,4.70
2017-12-15T08:10:51.325Z,4.60
2017-12-15T08:13:17.283Z,4.60
2017-12-15T08:15:43.996Z,4.70
2017-12-15T08:18:09.976Z,4.70
2017-12-15T08:20:36.708Z,4.70
2017-12-15T08:23:02.668Z,4.70
2017-12-15T08:25:29.420Z,4.50
2017-12-15T08:27:56.140Z,4.30
2017-12-15T08:30:22.090Z,4.30
2017-12-15T08:32:48.089Z,4.20
2017-12-15T08:35:14.016Z,4.10
2017-12-15T08:37:39.957Z,4.00
2017-12-15T08:40:05.929Z,3.80
2017-12-15T08:42:31.949Z,3.80
2017-12-15T08:44:57.931Z,3.80
2017-12-15T08:47:23.905Z,3.80
2017-12-15T08:49:49.876Z,3.80
2017-12-15T08:52:15.835Z,3.80
2017-12-15T08:54:41.821Z,3.60
2017-12-15T08:57:07.756Z,3.50
2017-12-15T08:59:33.689Z,3.40
2017-12-15T09:01:59.679Z,3.10
2017-12-15T09:04:25.604Z,3.10
2017-12-15T09:06:52.304Z,3.00
2017-12-15T09:09:18.273Z,3.00
2017-12-15T09:11:44.204Z,2.90
2017-12-15T09:14:10.177Z,2.80
2017-12-15T09:16:36.140Z,2.70
2017-12-15T09:19:02.127Z,2.60
2017-12-15T09:21:28.812Z,2.70
2017-12-15T09:23:54.778Z,2.60
2017-12-15T09:26:20.713Z,2.60
2017-12-15T09:28:46.684Z,2.70
2017-12-15T09:31:13.356Z,2.70
2017-12-15T09:33:39.328Z,2.70
2017-12-15T09:36:05.261Z,2.70
2017-12-15T09:38:31.247Z,2.70
2017-12-15T09:40:57.972Z,2.70
2017-12-15T09:43:23.977Z,2.70
2017-12-15T09:45:49.917Z,2.80
2017-12-15T09:48:15.940Z,2.80
2017-12-15T09:50:41.896Z,2.90
2017-12-15T09:53:07.869Z,2.90
2017-12-15T09:55:33.840Z,2.90
2017-12-15T09:57:59.930Z,2.90
2017-12-15T10:00:25.880Z,3.00
2017-12-15T10:02:51.860Z,3.00
2017-12-15T10:05:17.846Z,3.00
2017-12-15T10:07:43.797Z,3.00
2017-12-15T10:10:10.532Z,3.10
2017-12-15T10:12:36.477Z,3.10
2017-12-15T10:15:02.545Z,3.10
2017-12-15T10:17:28.482Z,3.20
2017-12-15T10:19:54.428Z,3.20
2017-12-15T10:22:20.417Z,3.30
2017-12-15T10:24:46.400Z,3.40
2017-12-15T10:27:12.405Z,3.40
2017-12-15T10:29:39.095Z,3.60
2017-12-15T10:32:05.041Z,3.60
2017-12-15T10:34:31.057Z,3.70
2017-12-15T10:36:57.012Z,3.80
2017-12-15T10:39:23.001Z,3.80
2017-12-15T10:41:49.693Z,3.90
2017-12-15T10:44:15.633Z,3.90
2017-12-15T10:46:41.611Z,4.00
2017-12-15T10:49:07.609Z,4.00
2017-12-15T10:51:33.594Z,4.10
2017-12-15T10:54:00.300Z,4.10
2017-12-15T10:56:26.241Z,4.10
2017-12-15T10:58:52.213Z,4.20
2017-12-15T11:01:19.019Z,4.20
2017-12-15T11:03:44.961Z,4.20
2017-12-15T11:06:10.900Z,4.20
2017-12-15T11:08:36.868Z,4.20
2017-12-15T11:11:02.858Z,4.30
2017-12-15T11:13:28.868Z,4.30
2017-12-15T11:15:54.818Z,4.40
2017-12-15T11:18:20.756Z,4.40
2017-12-15T11:20:46.781Z,4.40
2017-12-15T11:23:12.729Z,4.40
2017-12-15T11:25:38.696Z,4.50
2017-12-15T11:28:04.664Z,4.60
2017-12-15T11:30:31.384Z,4.70
2017-12-15T11:32:57.324Z,4.70
2017-12-15T11:35:23.292Z,4.80
2017-12-15T11:37:49.964Z,4.90
2017-12-15T11:40:15.965Z,5.00
2017-12-15T11:42:41.900Z,4.90
2017-12-15T11:45:07.832Z,4.90
2017-12-15T11:47:33.808Z,5.00
2017-12-15T11:49:59.775Z,5.20
2017-12-15T11:52:25.740Z,5.20
2017-12-15T11:54:51.680Z,5.30
2017-12-15T11:57:17.683Z,5.30
2017-12-15T11:59:43.631Z,5.20
2017-12-15T12:02:09.613Z,5.30
2017-12-15T12:04:35.557Z,5.40
2017-12-15T12:07:01.528Z,5.30
2017-12-15T12:09:27.537Z,5.30
2017-12-15T12:11:53.516Z,5.10
2017-12-15T12:14:19.481Z,5.20
2017-12-15T12:16:46.232Z,5.40
2017-12-15T12:19:12.916Z,5.50
2017-12-15T12:21:38.884Z,5.50
2017-12-15T12:24:04.862Z,5.50
2017-12-15T12:26:31.592Z,5.60
2017-12-15T12:28:58.369Z,5.50
2017-12-15T12:31:25.044Z,5.30
2017-12-15T12:33:51.034Z,5.30
2017-12-15T12:36:17.032Z,5.20
2017-12-15T12:38:43.009Z,5.20
2017-12-15T12:41:08.948Z,5.30
2017-12-15T12:43:35.682Z,5.20
2017-12-15T12:46:02.404Z,5.20
2017-12-15T12:48:28.354Z,5.10
2017-12-15T12:50:54.343Z,5.10
2017-12-15T12:53:21.043Z,5.20
2017-12-15T12:55:47.102Z,5.10
2017-12-15T12:58:13.072Z,5.20
2017-12-15T13:00:39.765Z,5.20
2017-12-15T13:03:05.711Z,5.10
2017-12-15T13:05:31.733Z,5.20
2017-12-15T13:07:57.690Z,5.20
2017-12-15T13:10:23.669Z,5.10
2017-12-15T13:12:49.616Z,5.10
2017-12-15T13:15:15.588Z,5.10
2017-12-15T13:17:41.560Z,5.20
2017-12-15T13:20:08.257Z,5.20
2017-12-15T13:22:34.272Z,5.20
2017-12-15T13:25:00.280Z,5.20
2017-12-15T13:27:26.963Z,5.30
2017-12-15T13:29:52.917Z,5.30
2017-12-15T13:32:18.905Z,5.40
2017-12-15T13:34:45.577Z,5.40
2017-12-15T13:37:11.525Z,5.40
2017-12-15T13:39:37.502Z,5.40
2017-12-15T13:42:03.468Z,5.50
2017-12-15T13:44:30.208Z,5.50
2017-12-15T13:46:56.924Z,5.60
2017-12-15T13:49:22.897Z,5.60
2017-12-15T13:51:48.845Z,5.60
2017-12-15T13:54:15.576Z,5.40
2017-12-15T13:56:42.340Z,5.50
2017-12-15T13:59:08.285Z,5.50
2017-12-15T14:01:34.317Z,5.50
2017-12-15T14:04:00.297Z,5.50
2017-12-15T14:06:26.293Z,5.40
2017-12-15T14:08:52.232Z,5.50
2017-12-15T14:11:18.185Z,5.40
2017-12-15T14:13:44.917Z,5.50
2017-12-15T14:16:10.853Z,5.50
2017-12-15T14:18:36.844Z,5.50
2017-12-15T14:21:02.816Z,5.50
2017-12-15T14:23:28.809Z,5.60
2017-12-15T14:25:54.752Z,5.60
2017-12-15T14:28:20.737Z,5.60
2017-12-15T14:30:46.705Z,5.50
2017-12-15T14:33:12.688Z,5.40
2017-12-15T14:35:38.624Z,5.40
2017-12-15T14:38:04.580Z,5.40
2017-12-15T14:40:30.583Z,5.30
2017-12-15T14:42:56.578Z,5.20
2017-12-15T14:45:22.544Z,5.10
2017-12-15T14:47:48.488Z,5.10
2017-12-15T14:50:14.505Z,5.00
2017-12-15T14:52:40.445Z,4.90
2017-12-15T14:55:06.401Z,4.90
2017-12-15T14:57:32.408Z,4.80
2017-12-15T14:59:58.353Z,4.70
2017-12-15T15:02:24.372Z,4.70
2017-12-15T15:04:50.312Z,4.60
2017-12-15T15:07:16.308Z,4.50
2017-12-15T15:09:42.259Z,4.50
2017-12-15T15:12:08.264Z,4.40
2017-12-15T15:14:34.292Z,4.40
2017-12-15T15:17:00.310Z,4.40
2017-12-15T15:19:26.255Z,4.40
2017-12-15T15:21:52.213Z,4.30
2017-12-15T15:24:18.210Z,4.20
2017-12-15T15:26:44.178Z,4.20
2017-12-15T15:29:10.145Z,4.20
2017-12-15T15:31:36.865Z,4.00
2017-12-15T15:34:02.841Z,4.00
2017-12-15T15:36:28.811Z,4.10
2017-12-15T15:38:54.768Z,4.00
2017-12-15T15:41:20.741Z,4.00
2017-12-15T15:43:46.712Z,4.00
2017-12-15T15:46:12.692Z,4.00
2017-12-15T15:48:38.636Z,3.90
2017-12-15T15:51:05.353Z,3.80
2017-12-15T15:53:31.366Z,3.80
2017-12-15T15:55:57.309Z,3.80
2017-12-15T15:58:23.325Z,3.80
2017-12-15T16:00:49.309Z,3.70
2017-12-15T16:03:15.240Z,3.60
2017-12-15T16:05:41.219Z,3.60
2017-12-15T16:08:07.201Z,3.60
2017-12-15T16:10:33.174Z,3.60
2017-12-15T16:12:59.945Z,3.50
2017-12-15T16:15:25.994Z,3.50
2017-12-15T16:17:51.974Z,3.40
2017-12-15T16:20:17.978Z,3.40
2017-12-15T16:22:43.919Z,3.40
2017-12-15T16:25:09.904Z,3.40
2017-12-15T16:27:35.873Z,3.30
2017-12-15T16:30:01.804Z,3.30
2017-12-15T16:32:27.801Z,3.30
2017-12-15T16:34:54.514Z,3.10
2017-12-15T16:37:20.556Z,3.10
2017-12-15T16:39:46.522Z,3.10
2017-12-15T16:42:12.504Z,3.00
2017-12-15T16:44:38.454Z,2.90
2017-12-15T16:47:04.686Z,2.80
2017-12-15T16:49:30.630Z,2.60
2017-12-15T16:51:56.612Z,2.60
2017-12-15T16:54:22.573Z,2.50
2017-12-15T16:56:49.285Z,2.40
2017-12-15T16:59:15.220Z,2.40
2017-12-15T17:01:41.188Z,2.30
2017-12-15T17:04:07.908Z,2.40
2017-12-15T17:06:33.851Z,2.40
2017-12-15T17:08:59.824Z,2.30
2017-12-15T17:11:26.491Z,2.20
2017-12-15T17:13:52.513Z,2.10
2017-12-15T17:16:18.452Z,2.20
2017-12-15T17:18:44.393Z,2.20
2017-12-15T17:21:10.377Z,2.10
2017-12-15T17:23:36.332Z,2.10
2017-12-15T17:26:02.315Z,2.00
2017-12-15T17:28:28.248Z,1.90
2017-12-15T17:30:54.205Z,1.80
2017-12-15T17:33:20.206Z,1.80
2017-12-15T17:35:46.141Z,1.70
2017-12-15T17:38:12.120Z,1.90
2017-12-15T17:40:45.121Z,1.80
2017-12-15T17:43:11.060Z,1.80
2017-12-15T17:45:37.054Z,1.70
2017-12-15T17:48:03.020Z,1.70
2017-12-15T17:50:28.956Z,1.60
2017-12-15T17:52:55.006Z,1.60
2017-12-15T17:55:21.017Z,1.60
2017-12-15T17:57:46.964Z,1.60
2017-12-15T18:00:13.817Z,1.60
2017-12-15T18:02:39.752Z,1.50
2017-12-15T18:05:05.726Z,1.50
2017-12-15T18:07:31.664Z,1.50
2017-12-15T18:09:58.372Z,1.50
2017-12-15T18:12:24.317Z,1.40
2017-12-15T18:14:50.336Z,1.60
2017-12-15T18:17:16.277Z,1.50
2017-12-15T18:19:42.217Z,1.60
2017-12-15T18:22:08.925Z,1.50
2017-12-15T18:24:35.588Z,1.50
2017-12-15T18:27:01.573Z,1.40
2017-12-15T18:29:27.525Z,1.50
2017-12-15T18:31:53.553Z,1.40
2017-12-15T18:34:19.498Z,1.40
2017-12-15T18:36:46.184Z,1.40
2017-12-15T18:39:12.149Z,1.40
2017-12-15T18:41:38.092Z,1.60
2017-12-15T18:44:04.062Z,1.70
2017-12-15T18:46:29.997Z,1.70
2017-12-15T18:48:56.744Z,1.80
2017-12-15T18:51:22.773Z,1.80
2017-12-15T18:53:48.789Z,1.70
2017-12-15T18:56:14.728Z,1.60
2017-12-15T18:58:40.729Z,1.60
2017-12-15T19:01:06.667Z,1.60
2017-12-15T19:03:32.661Z,1.50
2017-12-15T19:05:58.594Z,1.50
2017-12-15T19:08:24.536Z,1.60
2017-12-15T19:10:50.602Z,1.60
2017-12-15T19:13:16.564Z,1.60
2017-12-15T19:15:42.513Z,1.50
2017-12-15T19:18:08.525Z,1.60
2017-12-15T19:20:35.164Z,1.70
2017-12-15T19:23:01.096Z,1.70
2017-12-15T19:25:27.101Z,1.70
2017-12-15T19:27:53.046Z,1.70
2017-12-15T19:30:19.769Z,1.60
2017-12-15T19:32:45.727Z,1.60
2017-12-15T19:35:11.697Z,1.80
2017-12-15T19:37:37.701Z,1.70
2017-12-15T19:40:04.384Z,1.70
2017-12-15T19:42:30.490Z,1.70
2017-12-15T19:44:56.449Z,1.70
2017-12-15T19:47:22.461Z,1.70
2017-12-15T19:49:49.180Z,1.80
2017-12-15T19:52:15.120Z,1.80
2017-12-15T19:54:41.088Z,1.80
2017-12-15T19:57:07.765Z,1.80
2017-12-15T19:59:33.741Z,1.90
2017-12-15T20:01:59.731Z,1.80
2017-12-15T20:04:26.504Z,1.70
2017-12-15T20:06:52.592Z,1.70
2017-12-15T20:09:18.530Z,1.80
2017-12-15T20:11:44.496Z,1.80
2017-12-15T20:14:10.469Z,1.80
2017-12-15T20:16:36.481Z,1.90
2017-12-15T20:19:02.513Z,1.80
2017-12-15T20:21:28.491Z,1.80
2017-12-15T20:23:54.473Z,1.90
2017-12-15T20:26:21.206Z,2.10
2017-12-15T20:28:47.921Z,2.00
2017-12-15T20:31:13.875Z,2.00
2017-12-15T20:33:39.845Z,1.90
2017-12-15T20:36:06.552Z,2.00
2017-12-15T20:38:32.508Z,2.00
2017-12-15T20:40:58.505Z,2.20
2017-12-15T20:43:24.499Z,2.30
2017-12-15T20:45:51.284Z,2.10
2017-12-15T20:48:17.276Z,2.10
2017-12-15T20:50:43.305Z,2.10
2017-12-15T20:53:09.265Z,2.10
2017-12-15T20:55:35.957Z,2.30
2017-12-15T20:58:01.972Z,2.30
2017-12-15T21:00:27.953Z,2.20
2017-12-15T21:02:53.932Z,2.20
2017-12-15T21:05:20.624Z,2.20
2017-12-15T21:07:46.640Z,2.20
2017-12-15T21:10:12.612Z,2.20
2017-12-15T21:12:38.577Z,2.30
2017-12-15T21:15:04.592Z,2.20
2017-12-15T21:17:30.538Z,2.20
2017-12-15T21:19:56.529Z,2.20
2017-12-15T21:22:22.545Z,2.10
2017-12-15T21:24:48.506Z,2.20
2017-12-15T21:27:14.497Z,2.20
2017-12-15T21:29:41.236Z,2.10
2017-12-15T21:32:07.212Z,2.10
2017-12-15T21:34:33.272Z,2.10
2017-12-15T21:36:59.264Z,2.00
2017-12-15T21:39:26.048Z,1.90
2017-12-15T21:41:52.049Z,1.90
2017-12-15T21:44:18.787Z,1.80
2017-12-15T21:46:44.817Z,1.80
2017-12-15T21:49:10.803Z,1.80
2017-12-15T21:51:36.860Z,1.80
2017-12-15T21:54:02.796Z,1.70
2017-12-15T21:56:28.771Z,1.70
2017-12-15T21:58:54.712Z,1.60
2017-12-15T22:01:20.704Z,1.60
2017-12-15T22:03:46.693Z,1.60
2017-12-15T22:06:13.425Z,1.50
2017-12-15T22:08:39.396Z,1.50
2017-12-15T22:11:06.164Z,1.40
2017-12-15T22:13:32.097Z,1.40
2017-12-15T22:15:58.045Z,1.30
2017-12-15T22:18:24.020Z,1.30
2017-12-15T22:20:50.036Z,1.20
2017-12-15T22:23:16.057Z,1.10
2017-12-15T22:25:42.032Z,1.20
2017-12-15T22:28:08.004Z,1.10
2017-12-15T22:30:33.998Z,1.00
2017-12-15T22:32:59.962Z,0.90
2017-12-15T22:35:26.680Z,1.00
2017-12-15T22:37:52.714Z,1.00
2017-12-15T22:40:18.644Z,1.00
2017-12-15T22:42:44.616Z,1.00
2017-12-15T22:45:11.284Z,0.90
2017-12-15T22:47:38.040Z,0.80
2017-12-15T22:50:04.749Z,0.70
2017-12-15T22:52:30.696Z,0.70
2017-12-15T22:54:56.668Z,0.80
2017-12-15T22:57:22.649Z,0.90
2017-12-15T22:59:48.615Z,0.90
2017-12-15T23:02:15.293Z,0.90
2017-12-15T23:04:41.300Z,0.90
2017-12-15T23:07:07.235Z,0.80
2017-12-15T23:09:41.069Z,0.70
2017-12-15T23:12:07.769Z,0.60
2017-12-15T23:14:33.737Z,0.60
2017-12-15T23:16:59.721Z,0.60
2017-12-15T23:19:25.669Z,0.50
2017-12-15T23:21:51.723Z,0.40
2017-12-15T23:24:17.752Z,0.50
2017-12-15T23:26:43.774Z,0.40
2017-12-15T23:29:09.795Z,0.30
2017-12-15T23:31:35.732Z,0.30
2017-12-15T23:34:01.711Z,0.30
2017-12-15T23:36:27.682Z,0.30
2017-12-15T23:38:54.408Z,0.60
2017-12-15T23:41:20.432Z,0.60
2017-12-15T23:43:46.463Z,0.50
2017-12-15T23:46:12.452Z,0.40
2017-12-15T23:48:39.190Z,0.40
2017-12-15T23:51:05.191Z,0.30
2017-12-15T23:53:31.133Z,0.40
2017-12-15T23:56:09.566Z,0.30
2017-12-15T23:58:35.546Z,0.30
